Harrisburg, South Dakota
Current Conditions -  °F | °C
As of 2:06 PM on Thursday 30 Oct 2014 (Local Time) from KFSD Reporting Station
Overcast Overcast  
Wind Chill: 51°   Ceiling: 2900
Heat Index: 51°   Visibility: 10mi
Dew Point: 42°   Wind: 21mph
Humidity: 71%   Direction: 340°NNW
Pressure: 30.14"   Gusts: 30mph
Location:  43.43°N, 96.7°W
Report Text: KFSD 301906Z 34018G26KT 10SM OVC029 11/06 A3014 RMK AO2 PK WND 33026/1859 T01060056
Loading
Personal Weather Stations






























Interactive Weather Map
Tropical Storm Tracking
New forecast layout! Learn more

10-Day Weather Forecast

Advertisements
Track Severe Weather on mobile